createdAt,value
2018-01-15T00:00:17.715Z,43.00
2018-01-15T00:01:17.731Z,41.80
2018-01-15T00:02:17.733Z,45.00
2018-01-15T00:03:17.748Z,41.50
2018-01-15T00:04:17.753Z,44.40
2018-01-15T00:05:17.758Z,45.80
2018-01-15T00:06:17.756Z,45.80
2018-01-15T00:07:17.766Z,41.60
2018-01-15T00:08:17.780Z,44.10
2018-01-15T00:09:17.783Z,44.80
2018-01-15T00:10:17.800Z,47.70
2018-01-15T00:11:17.800Z,44.60
2018-01-15T00:12:17.808Z,47.90
2018-01-15T00:13:17.819Z,42.70
2018-01-15T00:14:17.844Z,41.10
2018-01-15T00:15:17.843Z,45.80
2018-01-15T00:16:17.843Z,44.50
2018-01-15T00:17:17.860Z,44.50
2018-01-15T00:18:17.875Z,47.70
2018-01-15T00:19:17.878Z,43.50
2018-01-15T00:20:17.888Z,44.30
2018-01-15T00:21:17.889Z,43.00
2018-01-15T00:22:17.900Z,44.80
2018-01-15T00:23:17.913Z,42.20
2018-01-15T00:24:17.915Z,47.10
2018-01-15T00:25:17.926Z,47.20
2018-01-15T00:26:17.941Z,43.10
2018-01-15T00:27:17.944Z,43.60
2018-01-15T00:28:17.957Z,45.80
2018-01-15T00:29:17.961Z,42.70
2018-01-15T00:30:17.976Z,42.70
2018-01-15T00:31:17.985Z,46.30
2018-01-15T00:32:17.994Z,43.20
2018-01-15T00:33:18.003Z,45.70
2018-01-15T00:34:18.004Z,43.20
2018-01-15T00:35:18.020Z,44.80
2018-01-15T00:36:18.022Z,47.10
2018-01-15T00:37:18.022Z,43.90
2018-01-15T00:38:18.029Z,46.30
2018-01-15T00:39:18.038Z,48.30
2018-01-15T00:40:18.046Z,43.60
2018-01-15T00:41:18.054Z,49.10
2018-01-15T00:42:18.070Z,44.30
2018-01-15T00:43:18.072Z,46.00
2018-01-15T00:44:18.081Z,46.20
2018-01-15T00:45:18.096Z,46.40
2018-01-15T00:46:18.109Z,47.20
2018-01-15T00:47:18.115Z,44.10
2018-01-15T00:48:18.117Z,46.10
2018-01-15T00:49:18.132Z,45.60
2018-01-15T00:50:18.141Z,47.80
2018-01-15T00:51:18.149Z,48.30
2018-01-15T00:52:18.152Z,48.70
2018-01-15T00:53:18.168Z,43.30
2018-01-15T00:54:18.177Z,46.00
2018-01-15T00:55:18.180Z,44.60
2018-01-15T00:56:18.195Z,47.00
2018-01-15T00:57:18.196Z,44.90
2018-01-15T00:58:18.206Z,45.50
2018-01-15T00:59:18.214Z,46.80
2018-01-15T01:00:18.225Z,45.60
2018-01-15T01:01:18.232Z,48.20
2018-01-15T01:02:18.240Z,45.80
2018-01-15T01:03:18.251Z,46.10
2018-01-15T01:04:18.259Z,48.30
2018-01-15T01:05:18.267Z,47.00
2018-01-15T01:06:18.264Z,45.80
2018-01-15T01:07:18.280Z,46.50
2018-01-15T01:08:18.294Z,45.90
2018-01-15T01:09:18.292Z,45.20
2018-01-15T01:10:18.299Z,45.00
2018-01-15T01:11:18.315Z,48.00
2018-01-15T01:12:18.325Z,50.50
2018-01-15T01:13:18.328Z,47.50
2018-01-15T01:14:18.342Z,45.70
2018-01-15T01:15:18.353Z,44.60
2018-01-15T01:16:18.360Z,46.70
2018-01-15T01:17:18.362Z,43.20
2018-01-15T01:18:18.370Z,46.20
2018-01-15T01:19:18.387Z,48.90
2018-01-15T01:20:18.394Z,43.40
2018-01-15T01:21:18.397Z,45.70
2018-01-15T01:22:18.412Z,44.20
2018-01-15T01:23:18.422Z,42.10
2018-01-15T01:24:18.432Z,48.00
2018-01-15T01:25:18.440Z,49.20
2018-01-15T01:26:18.442Z,50.60
2018-01-15T01:27:18.459Z,48.10
2018-01-15T01:28:18.472Z,47.50
2018-01-15T01:29:18.475Z,48.80
2018-01-15T01:30:18.484Z,47.50
2018-01-15T01:31:18.493Z,46.00
2018-01-15T01:32:18.502Z,52.00
2018-01-15T01:33:18.511Z,49.40
2018-01-15T01:34:18.512Z,46.60
2018-01-15T01:35:18.511Z,47.60
2018-01-15T01:36:18.531Z,49.70
2018-01-15T01:37:18.536Z,46.40
2018-01-15T01:38:18.539Z,45.40
2018-01-15T01:39:18.544Z,46.80
2018-01-15T01:40:18.560Z,48.20
2018-01-15T01:41:18.570Z,49.60
2018-01-15T01:42:18.579Z,46.60
2018-01-15T01:43:18.581Z,50.20
2018-01-15T01:44:18.590Z,45.80
2018-01-15T01:45:18.598Z,45.00
2018-01-15T01:46:18.613Z,49.80
2018-01-15T01:47:18.616Z,45.90
2018-01-15T01:48:18.631Z,47.50
2018-01-15T01:49:18.635Z,47.50
2018-01-15T01:50:18.649Z,49.80
2018-01-15T01:51:18.658Z,49.50
2018-01-15T01:52:18.660Z,49.60
2018-01-15T01:53:18.669Z,52.50
2018-01-15T01:54:18.684Z,49.60
2018-01-15T01:55:18.686Z,48.00
2018-01-15T01:56:18.696Z,47.10
2018-01-15T01:57:18.707Z,52.00
2018-01-15T01:58:18.714Z,48.70
2018-01-15T01:59:18.729Z,46.50
2018-01-15T02:00:18.739Z,48.00
2018-01-15T02:01:18.746Z,47.00
2018-01-15T02:02:18.756Z,46.20
2018-01-15T02:03:18.768Z,46.70
2018-01-15T02:04:18.775Z,49.90
2018-01-15T02:05:18.776Z,50.70
2018-01-15T02:06:18.783Z,49.70
2018-01-15T02:07:18.781Z,49.70
2018-01-15T02:08:18.861Z,47.10
2018-01-15T02:09:18.800Z,51.20
2018-01-15T02:10:18.814Z,50.70
2018-01-15T02:11:18.818Z,50.70
2018-01-15T02:12:18.844Z,49.00
2018-01-15T02:13:18.844Z,48.90
2018-01-15T02:14:18.851Z,49.30
2018-01-15T02:15:18.860Z,49.90
2018-01-15T02:16:18.862Z,46.50
2018-01-15T02:17:18.871Z,50.20
2018-01-15T02:18:18.879Z,50.70
2018-01-15T02:19:18.888Z,51.70
2018-01-15T02:20:18.897Z,48.60
2018-01-15T02:21:18.914Z,50.90
2018-01-15T02:22:18.922Z,51.40
2018-01-15T02:23:18.931Z,49.40
2018-01-15T02:24:18.938Z,50.90
2018-01-15T02:25:18.947Z,50.00
2018-01-15T02:26:18.967Z,47.40
2018-01-15T02:27:18.961Z,53.20
2018-01-15T02:28:18.968Z,46.80
2018-01-15T02:29:18.977Z,52.00
2018-01-15T02:30:18.987Z,51.50
2018-01-15T02:31:18.998Z,51.90
2018-01-15T02:32:19.009Z,53.40
2018-01-15T02:33:19.014Z,51.10
2018-01-15T02:34:19.021Z,49.20
2018-01-15T02:35:19.020Z,53.30
2018-01-15T02:36:19.034Z,50.30
2018-01-15T02:37:19.038Z,49.50
2018-01-15T02:38:19.045Z,49.60
2018-01-15T02:39:19.356Z,52.50
2018-01-15T02:40:19.069Z,53.10
2018-01-15T02:41:19.079Z,53.10
2018-01-15T02:42:19.088Z,51.30
2018-01-15T02:43:19.096Z,53.70
2018-01-15T02:44:19.098Z,48.90
2018-01-15T02:45:19.107Z,50.70
2018-01-15T02:46:19.123Z,51.30
2018-01-15T02:47:19.124Z,48.90
2018-01-15T02:48:19.146Z,47.20
2018-01-15T02:49:19.142Z,52.50
2018-01-15T02:50:19.159Z,48.10
2018-01-15T02:51:19.162Z,49.60
2018-01-15T02:52:19.170Z,49.50
2018-01-15T02:53:19.184Z,48.80
2018-01-15T02:54:19.188Z,50.30
2018-01-15T02:55:19.202Z,50.70
2018-01-15T02:56:19.206Z,49.20
2018-01-15T02:57:19.212Z,51.70
2018-01-15T02:58:19.224Z,51.40
2018-01-15T02:59:19.532Z,46.60
2018-01-15T03:00:19.247Z,53.10
2018-01-15T03:01:19.268Z,50.80
2018-01-15T03:02:19.259Z,52.10
2018-01-15T03:03:19.267Z,52.90
2018-01-15T03:04:19.276Z,53.80
2018-01-15T03:05:19.286Z,47.10
2018-01-15T03:06:19.301Z,47.30
2018-01-15T03:07:19.292Z,51.50
2018-01-15T03:08:19.299Z,50.50
2018-01-15T03:09:19.309Z,49.90
2018-01-15T03:10:19.323Z,52.60
2018-01-15T03:11:19.326Z,50.90
2018-01-15T03:12:19.334Z,51.20
2018-01-15T03:13:19.343Z,48.20
2018-01-15T03:14:19.360Z,51.70
2018-01-15T03:15:19.368Z,51.10
2018-01-15T03:16:19.390Z,50.70
2018-01-15T03:17:19.382Z,51.60
2018-01-15T03:18:19.387Z,54.20
2018-01-15T03:19:19.697Z,56.80
2018-01-15T03:20:19.414Z,48.80
2018-01-15T03:21:19.414Z,49.90
2018-01-15T03:22:19.423Z,54.40
2018-01-15T03:23:19.433Z,51.10
2018-01-15T03:24:19.441Z,50.60
2018-01-15T03:25:19.457Z,48.80
2018-01-15T03:26:19.465Z,55.20
2018-01-15T03:27:19.477Z,54.80
2018-01-15T03:28:19.478Z,51.30
2018-01-15T03:29:19.491Z,53.70
2018-01-15T03:30:19.521Z,50.10
2018-01-15T03:31:19.511Z,50.20
2018-01-15T03:32:19.520Z,51.10
2018-01-15T03:33:19.521Z,51.20
2018-01-15T03:34:19.536Z,49.60
2018-01-15T03:35:19.539Z,52.50
2018-01-15T03:36:19.547Z,51.80
2018-01-15T03:37:19.568Z,53.90
2018-01-15T03:38:19.572Z,53.70
2018-01-15T03:39:19.876Z,52.60
2018-01-15T03:40:19.583Z,49.80
2018-01-15T03:41:19.599Z,50.50
2018-01-15T03:42:19.603Z,49.40
2018-01-15T03:43:19.610Z,50.30
2018-01-15T03:44:19.620Z,53.50
2018-01-15T03:45:19.628Z,53.70
2018-01-15T03:46:19.637Z,54.00
2018-01-15T03:47:19.635Z,52.90
2018-01-15T03:48:19.661Z,53.90
2018-01-15T03:49:19.676Z,49.30
2018-01-15T03:50:19.662Z,52.90
2018-01-15T03:51:19.676Z,53.30
2018-01-15T03:52:19.690Z,52.20
2018-01-15T03:53:19.689Z,50.50
2018-01-15T03:54:19.704Z,52.60
2018-01-15T03:55:19.724Z,52.90
2018-01-15T03:56:19.722Z,47.30
2018-01-15T03:57:19.731Z,50.10
2018-01-15T03:58:19.732Z,49.10
2018-01-15T03:59:19.741Z,48.40
2018-01-15T04:00:19.761Z,49.90
2018-01-15T04:01:19.765Z,53.50
2018-01-15T04:02:19.771Z,48.40
2018-01-15T04:03:19.777Z,47.20
2018-01-15T04:04:19.785Z,47.30
2018-01-15T04:05:19.812Z,51.10
2018-01-15T04:06:19.810Z,48.50
2018-01-15T04:07:19.811Z,50.50
2018-01-15T04:08:19.831Z,50.10
2018-01-15T04:09:19.847Z,50.20
2018-01-15T04:10:19.856Z,47.10
2018-01-15T04:11:19.854Z,50.50
2018-01-15T04:12:19.856Z,51.60
2018-01-15T04:13:19.874Z,48.60
2018-01-15T04:14:19.881Z,49.00
2018-01-15T04:15:19.889Z,51.30
2018-01-15T04:16:19.898Z,51.90
2018-01-15T04:17:19.901Z,53.70
2018-01-15T04:18:19.908Z,48.30
2018-01-15T04:19:19.925Z,49.70
2018-01-15T04:20:19.933Z,50.80
2018-01-15T04:21:19.938Z,46.20
2018-01-15T04:22:19.945Z,54.60
2018-01-15T04:23:19.953Z,50.70
2018-01-15T04:24:19.962Z,52.50
2018-01-15T04:25:19.972Z,53.50
2018-01-15T04:26:19.980Z,51.70
2018-01-15T04:27:19.990Z,49.80
2018-01-15T04:28:19.998Z,49.10
2018-01-15T04:29:20.008Z,52.20
2018-01-15T04:30:20.017Z,51.60
2018-01-15T04:31:20.025Z,50.60
2018-01-15T04:32:20.040Z,49.50
2018-01-15T04:33:20.043Z,56.90
2018-01-15T04:34:20.052Z,52.50
2018-01-15T04:35:20.068Z,50.50
2018-01-15T04:36:20.081Z,51.00
2018-01-15T04:37:20.086Z,48.70
2018-01-15T04:38:20.088Z,48.70
2018-01-15T04:39:20.396Z,54.70
2018-01-15T04:40:20.115Z,50.50
2018-01-15T04:41:20.120Z,48.40
2018-01-15T04:42:20.130Z,50.60
2018-01-15T04:43:20.131Z,52.70
2018-01-15T04:44:20.141Z,49.70
2018-01-15T04:45:20.157Z,54.30
2018-01-15T04:46:20.164Z,51.30
2018-01-15T04:47:20.173Z,49.80
2018-01-15T04:48:20.178Z,51.90
2018-01-15T04:49:20.186Z,49.50
2018-01-15T04:50:20.204Z,53.20
2018-01-15T04:51:20.204Z,51.70
2018-01-15T04:52:20.222Z,48.40
2018-01-15T04:53:20.236Z,53.40
2018-01-15T04:54:20.230Z,49.40
2018-01-15T04:55:20.239Z,49.40
2018-01-15T04:56:20.247Z,51.50
2018-01-15T04:57:20.256Z,50.70
2018-01-15T04:58:20.264Z,52.40
2018-01-15T04:59:20.286Z,51.60
2018-01-15T05:00:20.290Z,48.30
2018-01-15T05:01:20.293Z,50.60
2018-01-15T05:02:20.299Z,53.50
2018-01-15T05:03:20.309Z,50.40
2018-01-15T05:04:20.619Z,50.00
2018-01-15T05:05:20.329Z,51.30
2018-01-15T05:06:20.341Z,50.50
2018-01-15T05:07:20.352Z,50.40
2018-01-15T05:08:20.359Z,52.70
2018-01-15T05:09:20.363Z,52.00
2018-01-15T05:10:20.378Z,53.60
2018-01-15T05:11:20.395Z,52.20
2018-01-15T05:12:20.396Z,49.80
2018-01-15T05:13:20.398Z,52.00
2018-01-15T05:14:20.413Z,45.60
2018-01-15T05:15:20.415Z,49.60
2018-01-15T05:16:20.424Z,52.00
2018-01-15T05:17:20.452Z,48.00
2018-01-15T05:18:20.448Z,51.60
2018-01-15T05:19:20.458Z,49.90
2018-01-15T05:20:20.460Z,50.20
2018-01-15T05:21:20.487Z,51.00
2018-01-15T05:22:20.478Z,55.90
2018-01-15T05:23:20.493Z,55.40
2018-01-15T05:24:20.503Z,47.40
2018-01-15T05:25:20.516Z,49.50
2018-01-15T05:26:20.513Z,50.70
2018-01-15T05:27:20.522Z,46.00
2018-01-15T05:28:20.539Z,47.60
2018-01-15T05:29:20.541Z,51.50
2018-01-15T05:30:20.549Z,45.40
2018-01-15T05:31:20.577Z,52.40
2018-01-15T05:32:20.573Z,51.90
2018-01-15T05:33:20.583Z,51.50
2018-01-15T05:34:20.891Z,48.50
2018-01-15T05:35:20.593Z,51.50
2018-01-15T05:36:20.603Z,52.70
2018-01-15T05:37:20.613Z,46.90
2018-01-15T05:38:20.620Z,48.00
2018-01-15T05:39:20.930Z,49.20
2018-01-15T05:40:20.663Z,50.90
2018-01-15T05:41:20.648Z,51.40
2018-01-15T05:42:20.664Z,46.50
2018-01-15T05:43:20.665Z,48.60
2018-01-15T05:44:20.685Z,47.00
2018-01-15T05:45:20.694Z,49.30
2018-01-15T05:46:20.691Z,51.90
2018-01-15T05:47:20.707Z,52.20
2018-01-15T05:48:20.727Z,52.00
2018-01-15T05:49:20.731Z,49.30
2018-01-15T05:50:20.745Z,54.70
2018-01-15T05:51:20.748Z,48.80
2018-01-15T05:52:20.757Z,52.70
2018-01-15T05:53:20.766Z,50.80
2018-01-15T05:54:20.774Z,49.00
2018-01-15T05:55:20.785Z,54.90
2018-01-15T05:56:20.798Z,50.80
2018-01-15T05:57:20.808Z,52.90
2018-01-15T05:58:20.816Z,54.30
2018-01-15T05:59:21.120Z,52.10
2018-01-15T06:00:20.835Z,52.00
2018-01-15T06:01:20.837Z,52.10
2018-01-15T06:02:20.846Z,49.80
2018-01-15T06:03:20.856Z,50.50
2018-01-15T06:04:20.869Z,48.30
2018-01-15T06:05:20.873Z,51.00
2018-01-15T06:06:20.887Z,50.80
2018-01-15T06:07:20.889Z,52.90
2018-01-15T06:08:20.900Z,53.50
2018-01-15T06:09:20.914Z,51.90
2018-01-15T06:10:20.918Z,50.60
2018-01-15T06:11:20.927Z,49.80
2018-01-15T06:12:20.934Z,51.10
2018-01-15T06:13:20.943Z,50.80
2018-01-15T06:14:20.958Z,50.00
2018-01-15T06:15:20.963Z,51.20
2018-01-15T06:16:20.977Z,49.30
2018-01-15T06:17:20.986Z,52.40
2018-01-15T06:18:20.996Z,46.90
2018-01-15T06:19:21.004Z,50.10
2018-01-15T06:20:21.019Z,51.80
2018-01-15T06:21:21.025Z,46.50
2018-01-15T06:22:21.023Z,54.40
2018-01-15T06:23:21.033Z,48.50
2018-01-15T06:24:21.041Z,47.70
2018-01-15T06:25:21.052Z,46.80
2018-01-15T06:26:21.066Z,50.70
2018-01-15T06:27:21.068Z,47.10
2018-01-15T06:28:21.084Z,49.60
2018-01-15T06:29:21.086Z,49.30
2018-01-15T06:30:21.112Z,47.10
2018-01-15T06:31:21.104Z,52.10
2018-01-15T06:32:21.112Z,51.10
2018-01-15T06:33:21.122Z,49.10
2018-01-15T06:34:21.137Z,48.50
2018-01-15T06:35:21.147Z,50.70
2018-01-15T06:36:21.155Z,51.90
2018-01-15T06:37:21.166Z,53.40
2018-01-15T06:38:21.166Z,47.50
2018-01-15T06:39:21.475Z,52.00
2018-01-15T06:40:21.183Z,51.30
2018-01-15T06:41:21.200Z,49.80
2018-01-15T06:42:21.201Z,51.90
2018-01-15T06:43:21.210Z,50.00
2018-01-15T06:44:21.219Z,48.90
2018-01-15T06:45:21.230Z,53.30
2018-01-15T06:46:21.244Z,53.50
2018-01-15T06:47:21.255Z,56.10
2018-01-15T06:48:21.268Z,50.70
2018-01-15T06:49:21.265Z,53.80
2018-01-15T06:50:21.274Z,51.70
2018-01-15T06:51:21.283Z,54.90
2018-01-15T06:52:21.306Z,51.20
2018-01-15T06:53:21.300Z,50.40
2018-01-15T06:54:21.316Z,55.70
2018-01-15T06:55:21.324Z,52.80
2018-01-15T06:56:21.325Z,51.70
2018-01-15T06:57:21.337Z,54.70
2018-01-15T06:58:21.352Z,50.30
2018-01-15T06:59:21.360Z,55.20
2018-01-15T07:00:21.368Z,52.60
2018-01-15T07:01:21.375Z,56.00
2018-01-15T07:02:21.375Z,52.50
2018-01-15T07:03:21.377Z,59.90
2018-01-15T07:04:21.392Z,57.50
2018-01-15T07:05:21.404Z,54.70
2018-01-15T07:06:21.404Z,54.00
2018-01-15T07:07:21.413Z,54.40
2018-01-15T07:08:21.421Z,53.30
2018-01-15T07:09:21.429Z,54.00
2018-01-15T07:10:21.438Z,55.80
2018-01-15T07:11:21.448Z,55.00
2018-01-15T07:12:21.457Z,54.20
2018-01-15T07:13:21.464Z,53.90
2018-01-15T07:14:21.481Z,56.10
2018-01-15T07:15:21.482Z,54.70
2018-01-15T07:16:21.492Z,51.60
2018-01-15T07:17:21.502Z,57.50
2018-01-15T07:18:21.510Z,57.00
2018-01-15T07:19:21.519Z,54.90
2018-01-15T07:20:21.529Z,54.00
2018-01-15T07:21:21.526Z,55.00
2018-01-15T07:22:21.534Z,56.60
2018-01-15T07:23:21.551Z,58.90
2018-01-15T07:24:21.557Z,52.30
2018-01-15T07:25:21.561Z,57.50
2018-01-15T07:26:21.574Z,50.10
2018-01-15T07:27:21.578Z,54.20
2018-01-15T07:28:21.592Z,55.70
2018-01-15T07:29:21.602Z,58.60
2018-01-15T07:30:21.605Z,56.30
2018-01-15T07:31:21.614Z,56.70
2018-01-15T07:32:21.622Z,55.40
2018-01-15T07:33:21.637Z,59.20
2018-01-15T07:34:21.647Z,57.00
2018-01-15T07:35:21.639Z,56.80
2018-01-15T07:36:21.646Z,59.10
2018-01-15T07:37:21.658Z,61.10
2018-01-15T07:38:21.664Z,71.80
2018-01-15T07:39:21.671Z,59.20
2018-01-15T07:40:21.681Z,58.20
2018-01-15T07:41:21.689Z,56.00
2018-01-15T07:42:21.705Z,63.60
2018-01-15T07:43:21.721Z,52.40
2018-01-15T07:44:21.723Z,60.90
2018-01-15T07:45:21.725Z,60.00
2018-01-15T07:46:21.734Z,57.50
2018-01-15T07:47:21.743Z,54.70
2018-01-15T07:48:21.758Z,55.20
2018-01-15T07:49:21.767Z,58.10
2018-01-15T07:50:21.771Z,53.90
2018-01-15T07:51:21.766Z,59.20
2018-01-15T07:52:21.774Z,60.30
2018-01-15T07:53:21.785Z,58.70
2018-01-15T07:54:21.792Z,52.10
2018-01-15T07:55:21.802Z,59.70
2018-01-15T07:56:21.810Z,59.40
2018-01-15T07:57:21.826Z,57.00
2018-01-15T07:58:21.829Z,57.00
2018-01-15T07:59:22.137Z,59.70
2018-01-15T08:00:21.853Z,57.90
2018-01-15T08:01:21.863Z,58.00
2018-01-15T08:02:21.864Z,54.80
2018-01-15T08:03:21.868Z,56.70
2018-01-15T08:04:21.870Z,54.30
2018-01-15T08:05:21.878Z,61.20
2018-01-15T08:06:21.888Z,52.80
2018-01-15T08:07:21.896Z,54.30
2018-01-15T08:08:21.911Z,58.40
2018-01-15T08:09:21.920Z,50.20
2018-01-15T08:10:21.927Z,53.30
2018-01-15T08:11:21.938Z,56.50
2018-01-15T08:12:21.947Z,53.80
2018-01-15T08:13:21.948Z,50.90
2018-01-15T08:14:21.958Z,55.50
2018-01-15T08:15:21.973Z,57.80
2018-01-15T08:16:21.983Z,53.10
2018-01-15T08:17:21.992Z,56.00
2018-01-15T08:18:21.989Z,54.70
2018-01-15T08:19:21.996Z,49.90
2018-01-15T08:20:22.006Z,51.90
2018-01-15T08:21:22.008Z,51.10
2018-01-15T08:22:22.017Z,53.80
2018-01-15T08:23:22.034Z,50.80
2018-01-15T08:24:22.035Z,54.00
2018-01-15T08:25:22.044Z,50.10
2018-01-15T08:26:22.080Z,49.80
2018-01-15T08:27:22.076Z,52.10
2018-01-15T08:28:22.083Z,51.70
2018-01-15T08:29:22.081Z,51.70
2018-01-15T08:30:22.088Z,53.10
2018-01-15T08:31:22.097Z,49.70
2018-01-15T08:32:22.119Z,52.50
2018-01-15T08:33:22.115Z,55.00
2018-01-15T08:34:22.131Z,52.60
2018-01-15T08:35:22.135Z,48.10
2018-01-15T08:36:22.148Z,47.40
2018-01-15T08:37:22.146Z,47.60
2018-01-15T08:38:22.154Z,51.60
2018-01-15T08:39:22.161Z,46.30
2018-01-15T08:40:22.164Z,51.10
2018-01-15T08:41:22.173Z,52.60
2018-01-15T08:42:22.188Z,47.50
2018-01-15T08:43:22.192Z,49.30
2018-01-15T08:44:22.208Z,48.40
2018-01-15T08:45:22.208Z,44.90
2018-01-15T08:46:22.217Z,45.00
2018-01-15T08:47:22.227Z,47.70
2018-01-15T08:48:22.236Z,47.40
2018-01-15T08:49:22.250Z,46.40
2018-01-15T08:50:22.255Z,46.20
2018-01-15T08:51:22.269Z,50.30
2018-01-15T08:52:22.271Z,49.10
2018-01-15T08:53:22.280Z,47.10
2018-01-15T08:54:22.292Z,45.80
2018-01-15T08:55:22.304Z,48.00
2018-01-15T08:56:22.307Z,47.80
2018-01-15T08:57:22.316Z,46.00
2018-01-15T08:58:22.324Z,45.90
2018-01-15T08:59:22.341Z,46.90
2018-01-15T09:00:22.343Z,43.40
2018-01-15T09:01:22.352Z,45.90
2018-01-15T09:02:22.348Z,39.50
2018-01-15T09:03:22.357Z,45.40
2018-01-15T09:04:22.373Z,42.50
2018-01-15T09:05:22.375Z,42.10
2018-01-15T09:06:22.390Z,43.60
2018-01-15T09:07:22.392Z,44.30
2018-01-15T09:08:22.400Z,41.80
2018-01-15T09:09:22.416Z,43.40
2018-01-15T09:10:22.419Z,41.70
2018-01-15T09:11:22.428Z,41.50
2018-01-15T09:12:22.438Z,43.40
2018-01-15T09:13:22.449Z,40.60
2018-01-15T09:14:22.454Z,39.60
2018-01-15T09:15:22.462Z,39.30
2018-01-15T09:16:22.479Z,39.60
2018-01-15T09:17:22.480Z,40.00
2018-01-15T09:18:22.489Z,39.10
2018-01-15T09:19:22.498Z,38.60
2018-01-15T09:20:22.520Z,39.10
2018-01-15T09:21:22.516Z,38.10
2018-01-15T09:22:22.545Z,38.20
2018-01-15T09:23:22.534Z,32.60
2018-01-15T09:24:22.551Z,35.80
2018-01-15T09:25:22.558Z,35.00
2018-01-15T09:26:22.563Z,40.00
2018-01-15T09:27:22.576Z,41.90
2018-01-15T09:28:22.585Z,35.40
2018-01-15T09:29:22.594Z,36.40
2018-01-15T09:30:22.596Z,35.70
2018-01-15T09:31:22.606Z,38.30
2018-01-15T09:32:22.614Z,33.90
2018-01-15T09:33:22.623Z,34.40
2018-01-15T09:34:22.638Z,33.40
2018-01-15T09:35:22.647Z,36.30
2018-01-15T09:36:22.649Z,31.60
2018-01-15T09:37:22.659Z,31.90
2018-01-15T09:38:22.673Z,33.30
2018-01-15T09:39:22.676Z,31.00
2018-01-15T09:40:22.685Z,31.80
2018-01-15T09:41:22.699Z,29.40
2018-01-15T09:42:22.702Z,36.40
2018-01-15T09:43:22.712Z,31.70
2018-01-15T09:44:22.721Z,33.20
2018-01-15T09:45:22.749Z,31.90
2018-01-15T09:46:22.744Z,32.60
2018-01-15T09:47:22.767Z,31.70
2018-01-15T09:48:22.769Z,31.40
2018-01-15T09:49:22.784Z,31.10
2018-01-15T09:50:22.788Z,31.00
2018-01-15T09:51:22.796Z,31.00
2018-01-15T09:52:22.804Z,32.40
2018-01-15T09:53:22.812Z,32.30
2018-01-15T09:54:22.828Z,35.50
2018-01-15T09:55:22.837Z,35.80
2018-01-15T09:56:22.841Z,33.60
2018-01-15T09:57:22.854Z,33.10
2018-01-15T09:58:22.857Z,34.10
2018-01-15T09:59:22.869Z,32.50
2018-01-15T10:00:22.882Z,30.50
2018-01-15T10:01:22.884Z,30.90
2018-01-15T10:02:22.899Z,30.50
2018-01-15T10:03:22.904Z,28.80
2018-01-15T10:04:22.910Z,28.30
2018-01-15T10:05:22.919Z,29.20
2018-01-15T10:06:22.930Z,32.50
2018-01-15T10:07:22.939Z,28.80
2018-01-15T10:08:22.967Z,29.90
2018-01-15T10:09:22.969Z,29.40
2018-01-15T10:10:22.977Z,30.40
2018-01-15T10:11:22.990Z,30.80
2018-01-15T10:12:23.001Z,30.60
2018-01-15T10:13:23.003Z,29.50
2018-01-15T10:14:23.015Z,28.80
2018-01-15T10:15:23.027Z,32.10
2018-01-15T10:16:23.029Z,30.20
2018-01-15T10:17:23.039Z,29.70
2018-01-15T10:18:23.053Z,30.70
2018-01-15T10:19:23.061Z,31.00
2018-01-15T10:20:23.078Z,29.20
2018-01-15T10:21:23.086Z,28.50
2018-01-15T10:22:23.092Z,29.10
2018-01-15T10:23:23.104Z,30.30
2018-01-15T10:24:23.116Z,29.30
2018-01-15T10:25:23.121Z,29.80
2018-01-15T10:26:23.131Z,29.50
2018-01-15T10:27:23.140Z,30.00
2018-01-15T10:28:23.156Z,28.50
2018-01-15T10:29:23.161Z,30.10
2018-01-15T10:30:23.174Z,27.90
2018-01-15T10:31:23.176Z,27.80
2018-01-15T10:32:23.192Z,30.00
2018-01-15T10:33:23.212Z,29.90
2018-01-15T10:34:23.220Z,30.10
2018-01-15T10:35:23.224Z,30.10
2018-01-15T10:36:23.234Z,28.50
2018-01-15T10:37:23.248Z,30.00
2018-01-15T10:38:23.256Z,27.60
2018-01-15T10:39:23.261Z,26.50
2018-01-15T10:40:23.275Z,27.60
2018-01-15T10:41:23.283Z,25.10
2018-01-15T10:42:23.285Z,27.70
2018-01-15T10:43:23.306Z,31.20
2018-01-15T10:44:23.316Z,27.40
2018-01-15T10:45:23.332Z,25.30
2018-01-15T10:46:23.335Z,28.30
2018-01-15T10:47:23.349Z,29.30
2018-01-15T10:48:23.357Z,28.70
2018-01-15T10:49:23.368Z,26.30
2018-01-15T10:50:23.383Z,29.70
2018-01-15T10:51:23.377Z,26.30
2018-01-15T10:52:23.400Z,27.50
2018-01-15T10:53:23.415Z,26.00
2018-01-15T10:54:23.417Z,27.70
2018-01-15T10:55:23.467Z,33.60
2018-01-15T10:56:23.442Z,32.00
2018-01-15T10:57:23.444Z,26.70
2018-01-15T10:58:23.466Z,26.10
2018-01-15T10:59:23.467Z,29.50
2018-01-15T11:00:23.479Z,27.70
2018-01-15T11:01:23.491Z,28.30
2018-01-15T11:02:23.502Z,28.60
2018-01-15T11:03:23.509Z,28.30
2018-01-15T11:04:23.518Z,27.10
2018-01-15T11:05:23.527Z,28.70
2018-01-15T11:06:23.543Z,27.00
2018-01-15T11:07:23.545Z,23.90
2018-01-15T11:08:23.573Z,23.40
2018-01-15T11:09:23.579Z,23.40
2018-01-15T11:10:23.584Z,25.40
2018-01-15T11:11:23.594Z,23.90
2018-01-15T11:12:23.608Z,23.20
2018-01-15T11:13:23.636Z,21.30
2018-01-15T11:14:23.621Z,22.50
2018-01-15T11:15:23.648Z,21.60
2018-01-15T11:16:23.662Z,23.30
2018-01-15T11:17:23.660Z,20.10
2018-01-15T11:18:23.707Z,20.70
2018-01-15T11:19:23.697Z,21.80
2018-01-15T11:20:23.693Z,19.70
2018-01-15T11:21:23.714Z,21.50
2018-01-15T11:22:23.716Z,21.40
2018-01-15T11:23:23.725Z,20.90
2018-01-15T11:24:23.735Z,18.40
2018-01-15T11:25:23.743Z,22.10
2018-01-15T11:26:23.752Z,20.50
2018-01-15T11:27:23.774Z,19.60
2018-01-15T11:28:23.787Z,17.90
2018-01-15T11:29:23.796Z,18.30
2018-01-15T11:30:23.800Z,21.80
2018-01-15T11:31:23.815Z,19.90
2018-01-15T11:32:23.830Z,20.80
2018-01-15T11:33:23.839Z,17.10
2018-01-15T11:34:23.854Z,18.40
2018-01-15T11:35:23.864Z,19.60
2018-01-15T11:36:23.864Z,20.50
2018-01-15T11:37:23.875Z,19.20
2018-01-15T11:38:23.903Z,19.70
2018-01-15T11:39:23.905Z,18.50
2018-01-15T11:40:23.918Z,18.80
2018-01-15T11:41:23.922Z,21.20
2018-01-15T11:42:23.931Z,20.70
2018-01-15T11:43:23.955Z,18.60
2018-01-15T11:44:23.961Z,20.40
2018-01-15T11:45:23.970Z,19.00
2018-01-15T11:46:23.979Z,16.50
2018-01-15T11:47:23.988Z,17.80
2018-01-15T11:48:24.010Z,18.40
2018-01-15T11:49:24.019Z,17.50
2018-01-15T11:50:24.034Z,18.60
2018-01-15T11:51:24.046Z,21.00
2018-01-15T11:52:24.053Z,18.10
2018-01-15T11:53:24.073Z,17.60
2018-01-15T11:54:24.083Z,18.80
2018-01-15T11:55:24.085Z,19.40
2018-01-15T11:56:24.093Z,18.30
2018-01-15T11:57:24.115Z,18.90
2018-01-15T11:58:24.130Z,18.50
2018-01-15T11:59:24.145Z,16.70
2018-01-15T12:00:24.142Z,20.10
2018-01-15T12:01:24.157Z,18.90
2018-01-15T12:02:24.172Z,17.80
2018-01-15T12:03:24.186Z,18.40
2018-01-15T12:04:24.202Z,16.70
2018-01-15T12:05:24.197Z,18.40
2018-01-15T12:06:24.213Z,19.20
2018-01-15T12:07:24.230Z,17.30
2018-01-15T12:08:24.244Z,16.70
2018-01-15T12:09:24.256Z,16.70
2018-01-15T12:10:24.256Z,17.60
2018-01-15T12:11:24.266Z,18.10
2018-01-15T12:12:24.293Z,18.40
2018-01-15T12:13:24.301Z,18.80
2018-01-15T12:14:24.308Z,20.10
2018-01-15T12:15:24.318Z,18.60
2018-01-15T12:16:24.334Z,20.30
2018-01-15T12:17:24.350Z,19.20
2018-01-15T12:18:24.406Z,18.50
2018-01-15T12:19:24.367Z,17.80
2018-01-15T12:20:24.403Z,17.10
2018-01-15T12:21:24.420Z,18.40
2018-01-15T12:22:24.400Z,17.30
2018-01-15T12:23:24.409Z,18.70
2018-01-15T12:24:24.419Z,18.40
2018-01-15T12:25:24.438Z,17.90
2018-01-15T12:26:24.455Z,17.20
2018-01-15T12:27:24.457Z,17.60
2018-01-15T12:28:24.473Z,16.20
2018-01-15T12:29:24.487Z,19.60
2018-01-15T12:30:24.496Z,18.00
2018-01-15T12:31:24.515Z,17.00
2018-01-15T12:32:24.520Z,18.40
2018-01-15T12:33:24.537Z,18.40
2018-01-15T12:34:24.550Z,16.90
2018-01-15T12:35:24.552Z,19.60
2018-01-15T12:36:24.561Z,19.70
2018-01-15T12:37:24.591Z,18.90
2018-01-15T12:38:24.599Z,16.50
2018-01-15T12:39:24.608Z,20.00
2018-01-15T12:40:24.610Z,19.90
2018-01-15T12:41:24.631Z,20.80
2018-01-15T12:42:24.643Z,18.60
2018-01-15T12:43:24.650Z,17.50
2018-01-15T12:44:24.669Z,16.60
2018-01-15T12:45:24.669Z,17.50
2018-01-15T12:46:24.689Z,20.00
2018-01-15T12:47:24.703Z,22.40
2018-01-15T12:48:24.708Z,17.50
2018-01-15T12:49:24.727Z,17.80
2018-01-15T12:50:24.743Z,19.80
2018-01-15T12:51:24.745Z,17.10
2018-01-15T12:52:24.755Z,16.20